Time;durP1;ratioP1;P1;durP2;ratioP2;P2;SDS_P1;SDS_P2;PMS_P1;PMS_P2;Temp;Humidity;BMP_temperature;BMP_pressure;BME280_temperature;BME280_humidity;BME280_pressure;Samples;Min_cycle;Max_cycle;Signal;HPM_P1;HPM_P2
2022/04/11 00:02:10;;;;;;;6.63;4.93;;;4.70;99.90;;;;;;5035482;28;20186;-46
2022/04/11 00:04:35;;;;;;;6.43;4.80;;;4.60;99.90;;;;;;5053120;28;20576;-48
2022/04/11 00:07:01;;;;;;;5.90;4.47;;;4.50;99.90;;;;;;5053335;28;20599;-47
2022/04/11 00:09:27;;;;;;;5.63;4.83;;;4.40;99.90;;;;;;5053308;28;20171;-52
2022/04/11 00:11:52;;;;;;;5.87;4.93;;;4.40;99.90;;;;;;5053113;28;20640;-47
2022/04/11 00:14:18;;;;;;;6.10;4.70;;;4.20;99.90;;;;;;5052839;28;20191;-49
2022/04/11 00:16:44;;;;;;;6.40;4.80;;;4.50;99.90;;;;;;5053086;28;20214;-49
2022/04/11 00:19:10;;;;;;;5.93;4.90;;;4.40;99.90;;;;;;5053142;28;20172;-47
2022/04/11 00:21:35;;;;;;;7.23;5.13;;;4.70;99.90;;;;;;5052960;28;20645;-52
2022/04/11 00:24:01;;;;;;;5.87;4.70;;;4.20;99.90;;;;;;5052543;28;20843;-52
2022/04/11 00:26:26;;;;;;;6.83;5.17;;;4.20;99.90;;;;;;5052904;28;20236;-47
2022/04/11 00:28:53;;;;;;;8.17;4.73;;;4.30;99.90;;;;;;5052836;28;20262;-46
2022/04/11 00:31:19;;;;;;;7.93;5.40;;;4.20;99.90;;;;;;5052862;28;20544;-49
2022/04/11 00:33:44;;;;;;;8.37;5.73;;;4.10;99.90;;;;;;5052429;28;20195;-48
2022/04/11 00:36:11;;;;;;;7.07;5.37;;;4.20;99.90;;;;;;5052789;28;20283;-46
2022/04/11 00:38:37;;;;;;;6.87;5.40;;;4.20;99.90;;;;;;5052750;28;20258;-48
2022/04/11 00:41:02;;;;;;;9.07;5.80;;;4.20;99.90;;;;;;5052682;28;20253;-49
2022/04/11 00:43:30;;;;;;;7.70;6.90;;;4.20;99.90;;;;;;5052244;28;20182;-51
2022/04/11 00:45:56;;;;;;;8.93;6.33;;;4.20;99.90;;;;;;5052653;28;20246;-51
2022/04/11 00:48:22;;;;;;;7.70;5.90;;;4.20;99.90;;;;;;5052294;28;20258;-48
2022/04/11 00:50:48;;;;;;;8.87;5.87;;;4.10;99.90;;;;;;5052570;28;20183;-46
2022/04/11 00:53:14;;;;;;;7.63;6.10;;;3.90;99.90;;;;;;5051990;28;20241;-49
2022/04/11 00:55:42;;;;;;;7.90;6.37;;;4.00;99.90;;;;;;5052372;28;20194;-50
2022/04/11 00:58:07;;;;;;;8.90;7.23;;;4.00;99.90;;;;;;5052321;28;20185;-48
2022/04/11 01:00:34;;;;;;;10.40;6.67;;;4.00;99.90;;;;;;5052339;28;20671;-48
2022/04/11 01:03:00;;;;;;;7.93;6.70;;;4.00;99.90;;;;;;5051987;28;20166;-49
2022/04/11 01:05:25;;;;;;;7.57;6.60;;;4.00;99.90;;;;;;5052207;28;20195;-47
2022/04/11 01:07:51;;;;;;;8.37;6.80;;;4.00;99.90;;;;;;5052237;28;20270;-49
2022/04/11 01:10:17;;;;;;;11.43;8.10;;;4.00;99.90;;;;;;5052163;28;20179;-52
2022/04/11 01:12:43;;;;;;;10.03;7.67;;;4.00;99.90;;;;;;5051729;28;20246;-50
2022/04/11 01:15:09;;;;;;;7.83;6.97;;;4.00;99.90;;;;;;5051961;28;20199;-49
2022/04/11 01:17:37;;;;;;;8.57;7.67;;;3.90;99.90;;;;;;5052086;28;20629;-49
2022/04/11 01:20:21;;;;;;;8.70;7.20;;;4.00;99.90;;;;;;5051822;28;20255;-49
2022/04/11 01:22:48;;;;;;;9.30;8.10;;;4.00;99.90;;;;;;5051728;28;20962;-51
2022/04/11 01:25:15;;;;;;;9.73;7.67;;;4.00;99.90;;;;;;5051781;28;20583;-49
2022/04/11 01:27:42;;;;;;;10.47;8.10;;;3.90;99.90;;;;;;5051918;28;20175;-53
2022/04/11 01:30:10;;;;;;;10.83;8.37;;;3.90;99.90;;;;;;5051874;28;20260;-48
2022/04/11 01:32:36;;;;;;;9.23;8.17;;;3.90;99.90;;;;;;5051548;28;20317;-49
2022/04/11 01:35:02;;;;;;;10.80;8.43;;;3.90;99.90;;;;;;5051487;28;20784;-49
2022/04/11 01:37:28;;;;;;;7.83;7.03;;;3.90;99.90;;;;;;5051839;28;20214;-51
2022/04/11 01:39:54;;;;;;;8.43;7.20;;;3.90;99.90;;;;;;5051765;28;20171;-48
2022/04/11 01:42:19;;;;;;;8.07;6.63;;;3.90;99.90;;;;;;5051387;28;20221;-49
2022/04/11 01:44:45;;;;;;;9.47;7.20;;;3.90;99.90;;;;;;5052014;28;20199;-50
2022/04/11 01:47:10;;;;;;;8.27;6.93;;;3.90;99.90;;;;;;5051693;28;20171;-52
2022/04/11 01:49:36;;;;;;;8.67;7.20;;;3.90;99.90;;;;;;5051651;28;20262;-51
2022/04/11 01:52:02;;;;;;;7.10;5.90;;;3.80;99.90;;;;;;5051582;28;20178;-49
2022/04/11 01:54:28;;;;;;;8.63;6.43;;;3.80;99.90;;;;;;5051183;28;20611;-47
2022/04/11 01:56:53;;;;;;;7.53;6.20;;;3.60;99.90;;;;;;5051551;28;20178;-50
2022/04/11 01:59:19;;;;;;;8.63;6.43;;;3.70;99.90;;;;;;5051658;28;20171;-50
2022/04/11 02:01:44;;;;;;;6.73;5.60;;;3.70;99.90;;;;;;5054095;28;20712;-47
2022/04/11 02:04:10;;;;;;;10.47;6.13;;;3.60;99.90;;;;;;5055247;28;20680;-49
2022/04/11 02:06:36;;;;;;;7.60;6.47;;;3.60;99.90;;;;;;5055563;28;20175;-50
2022/04/11 02:09:02;;;;;;;7.40;5.83;;;3.60;99.90;;;;;;5055704;28;20834;-47
2022/04/11 02:11:27;;;;;;;7.67;5.47;;;3.60;99.90;;;;;;5055409;28;20175;-47
2022/04/11 02:13:53;;;;;;;8.03;6.40;;;3.50;99.90;;;;;;5055037;28;20664;-51
2022/04/11 02:16:18;;;;;;;6.77;6.07;;;3.60;99.90;;;;;;5055268;28;20588;-48
2022/04/11 02:18:44;;;;;;;8.40;6.17;;;3.40;99.90;;;;;;5055369;28;20174;-49
2022/04/11 02:21:09;;;;;;;6.07;5.00;;;3.50;99.90;;;;;;5055235;28;20676;-50
2022/04/11 02:23:35;;;;;;;8.50;4.93;;;3.40;99.90;;;;;;5054945;28;20560;-49
2022/04/11 02:26:01;;;;;;;7.23;5.90;;;3.20;99.90;;;;;;5055289;28;20205;-49
2022/04/11 02:28:26;;;;;;;5.97;4.80;;;3.50;99.90;;;;;;5055199;28;20226;-52
2022/04/11 02:30:52;;;;;;;6.27;5.17;;;3.10;99.90;;;;;;5055213;28;20179;-52
2022/04/11 02:33:17;;;;;;;5.63;4.90;;;3.30;99.90;;;;;;5054723;28;20174;-47
2022/04/11 02:35:43;;;;;;;9.73;5.83;;;3.30;99.90;;;;;;5055053;28;20245;-46
2022/04/11 02:38:08;;;;;;;7.20;5.23;;;3.20;99.90;;;;;;5055059;28;20168;-48
2022/04/11 02:40:34;;;;;;;5.90;5.13;;;3.20;99.90;;;;;;5054916;28;20179;-49
2022/04/11 02:43:00;;;;;;;6.03;5.13;;;3.20;99.90;;;;;;5054633;28;20167;-47
2022/04/11 02:45:25;;;;;;;6.47;4.90;;;3.20;99.90;;;;;;5054813;28;20256;-47
2022/04/11 02:47:51;;;;;;;9.07;5.30;;;3.10;99.90;;;;;;5054867;28;20719;-50
2022/04/11 02:50:16;;;;;;;8.43;5.63;;;3.10;99.90;;;;;;5054748;28;20175;-50
2022/04/11 02:52:42;;;;;;;8.93;5.80;;;3.10;99.90;;;;;;5054514;28;20179;-48
2022/04/11 02:55:08;;;;;;;8.47;6.50;;;3.10;99.90;;;;;;5054704;28;20210;-48
2022/04/11 02:57:36;;;;;;;7.63;6.00;;;3.10;99.90;;;;;;5054736;28;20167;-48
2022/04/11 03:00:11;;;;;;;9.03;6.63;;;3.10;99.90;;;;;;5054651;28;20195;-49
2022/04/11 03:02:37;;;;;;;8.67;7.33;;;3.10;99.90;;;;;;5054210;28;20163;-51
2022/04/11 03:05:03;;;;;;;9.73;7.90;;;3.10;99.90;;;;;;5054681;28;20452;-49
2022/04/11 03:07:28;;;;;;;8.83;7.60;;;3.00;99.90;;;;;;5054457;28;20175;-51
2022/04/11 03:09:55;;;;;;;9.67;8.30;;;2.90;99.90;;;;;;5054390;28;20167;-51
2022/04/11 03:12:21;;;;;;;10.30;8.13;;;2.90;99.90;;;;;;5053905;28;20199;-49
2022/04/11 03:14:49;;;;;;;9.03;8.00;;;3.00;99.90;;;;;;5054167;28;20198;-48
2022/04/11 03:17:16;;;;;;;9.37;8.23;;;3.00;99.90;;;;;;5054244;28;20438;-52
2022/04/11 03:19:43;;;;;;;9.90;8.53;;;3.00;99.90;;;;;;5054270;28;20806;-51
2022/04/11 03:22:09;;;;;;;7.53;6.73;;;3.00;99.90;;;;;;5054085;28;20179;-51
2022/04/11 03:24:35;;;;;;;7.23;5.63;;;2.90;99.90;;;;;;5053721;28;20213;-51
2022/04/11 03:27:01;;;;;;;5.93;4.90;;;2.90;99.90;;;;;;5054020;28;20167;-49
2022/04/11 03:29:27;;;;;;;7.37;5.07;;;2.50;99.90;;;;;;5054121;28;20235;-48
2022/04/11 03:31:52;;;;;;;6.40;5.17;;;2.90;99.90;;;;;;5053918;28;20179;-52
2022/04/11 03:34:18;;;;;;;6.53;4.87;;;2.80;99.90;;;;;;5053642;28;20230;-49
2022/04/11 03:36:44;;;;;;;6.03;4.93;;;;;;;;;;5053813;28;20195;-52
2022/04/11 03:39:10;;;;;;;6.83;5.10;;;;;;;;;;5053952;28;20182;-53
2022/04/11 03:41:36;;;;;;;7.97;5.67;;;2.70;99.90;;;;;;5053989;28;20654;-47
2022/04/11 03:44:01;;;;;;;6.80;5.30;;;2.70;99.90;;;;;;5053368;28;20186;-48
2022/04/11 03:46:28;;;;;;;7.80;5.37;;;2.80;99.90;;;;;;5053609;28;20183;-46
2022/04/11 03:48:54;;;;;;;6.50;5.40;;;2.60;99.90;;;;;;5053940;28;20185;-47
2022/04/11 03:51:20;;;;;;;8.07;5.87;;;2.60;99.90;;;;;;5053678;28;20406;-46
2022/04/11 03:53:47;;;;;;;6.70;5.77;;;2.60;99.90;;;;;;5053112;28;20429;-47
2022/04/11 03:56:14;;;;;;;8.00;6.33;;;2.60;99.90;;;;;;5053482;28;20252;-49
2022/04/11 03:58:40;;;;;;;8.03;6.23;;;2.60;99.90;;;;;;5053427;28;20420;-47
2022/04/11 04:01:06;;;;;;;7.70;5.80;;;2.60;99.90;;;;;;5053246;28;20441;-47
2022/04/11 04:03:32;;;;;;;7.10;6.10;;;2.70;99.90;;;;;;5052943;28;20812;-47
2022/04/11 04:05:58;;;;;;;7.60;6.13;;;2.60;99.90;;;;;;5053386;28;20207;-48
2022/04/11 04:08:23;;;;;;;7.73;5.60;;;2.50;99.90;;;;;;5053275;28;20202;-50
2022/04/11 04:10:49;;;;;;;7.73;5.73;;;2.50;99.90;;;;;;5053256;28;20232;-47
2022/04/11 04:13:16;;;;;;;7.73;5.87;;;2.40;99.90;;;;;;5052757;28;20224;-48
2022/04/11 04:15:43;;;;;;;6.57;5.53;;;2.60;99.90;;;;;;5053117;28;20282;-47
2022/04/11 04:18:10;;;;;;;7.37;5.57;;;2.50;99.90;;;;;;5053191;28;20417;-50
2022/04/11 04:20:36;;;;;;;7.23;6.43;;;2.60;99.90;;;;;;5053168;28;20408;-48
2022/04/11 04:23:01;;;;;;;18.60;13.57;;;2.60;99.90;;;;;;5052306;28;20751;-50
2022/04/11 04:25:27;;;;;;;14.67;10.27;;;2.60;99.90;;;;;;5092067;22;20229;-52
2022/04/11 04:27:52;;;;;;;12.50;9.77;;;2.50;99.90;;;;;;5093088;28;20166;-51
2022/04/11 04:30:18;;;;;;;12.30;8.70;;;2.50;99.90;;;;;;5075009;28;20599;-51
2022/04/11 04:32:44;;;;;;;12.40;9.30;;;2.50;99.90;;;;;;5092740;28;20170;-51
2022/04/11 04:35:10;;;;;;;11.53;8.40;;;2.50;99.90;;;;;;5104080;28;20462;-52
2022/04/11 04:37:36;;;;;;;9.47;7.67;;;;;;;;;;5113309;28;20165;-54
2022/04/11 04:40:03;;;;;;;10.83;8.47;;;2.50;99.90;;;;;;5113256;28;20398;-51
2022/04/11 04:42:28;;;;;;;10.30;8.37;;;2.50;99.90;;;;;;5112976;28;21080;-51
2022/04/11 04:44:54;;;;;;;9.83;7.30;;;2.60;99.90;;;;;;5113170;28;20433;-53
2022/04/11 04:47:20;;;;;;;11.30;8.43;;;2.60;99.90;;;;;;5113172;28;20169;-51
2022/04/11 04:49:47;;;;;;;11.97;8.27;;;2.60;99.90;;;;;;5113199;28;20436;-51
2022/04/11 04:52:13;;;;;;;13.50;9.30;;;2.60;99.90;;;;;;5112880;28;20438;-55
2022/04/11 04:54:38;;;;;;;12.77;9.03;;;2.60;99.90;;;;;;5112716;28;20438;-54
2022/04/11 04:57:05;;;;;;;11.40;8.80;;;2.60;99.90;;;;;;5113066;28;20406;-51
2022/04/11 04:59:30;;;;;;;11.33;9.03;;;2.70;99.90;;;;;;5094538;28;20173;-55
2022/04/11 05:01:56;;;;;;;8.87;7.57;;;2.60;99.90;;;;;;5112988;28;20539;-56
2022/04/11 05:04:22;;;;;;;12.37;9.37;;;2.70;99.90;;;;;;5112483;28;20200;-52
2022/04/11 05:06:48;;;;;;;11.60;9.43;;;;;;;;;;5112850;28;20165;-55
2022/04/11 05:09:14;;;;;;;11.20;9.33;;;;;;;;;;5112786;28;20169;-56
2022/04/11 05:11:39;;;;;;;8.83;7.93;;;3.20;99.90;;;;;;5107757;28;20184;-53
2022/04/11 05:14:05;;;;;;;9.70;6.53;;;3.00;99.90;;;;;;5094791;28;20176;-52
2022/04/11 05:16:31;;;;;;;9.20;6.77;;;;;;;;;;5095642;28;20205;-52
2022/04/11 05:18:57;;;;;;;7.23;6.20;;;3.10;99.90;;;;;;5112545;28;20169;-51
2022/04/11 05:21:22;;;;;;;7.33;6.10;;;3.00;99.90;;;;;;5110744;28;20907;-54
2022/04/11 05:23:48;;;;;;;6.03;5.43;;;;;;;;;;5082546;28;20200;-52
2022/04/11 05:26:14;;;;;;;7.07;5.90;;;3.10;99.90;;;;;;5112167;28;20681;-51
2022/04/11 05:28:39;;;;;;;6.93;5.63;;;3.20;99.90;;;;;;5090750;28;20412;-50
2022/04/11 05:31:05;;;;;;;5.70;5.07;;;3.30;99.90;;;;;;5091977;28;20173;-52
2022/04/11 05:33:31;;;;;;;6.57;5.60;;;3.60;99.90;;;;;;5091838;28;20178;-53
2022/04/11 05:35:56;;;;;;;7.97;6.30;;;3.30;99.90;;;;;;5105531;28;20201;-55
2022/04/11 05:38:23;;;;;;;6.90;5.70;;;3.40;99.90;;;;;;5097887;28;20318;-52
2022/04/11 05:40:48;;;;;;;9.43;6.77;;;3.40;99.90;;;;;;5100749;28;20165;-54
2022/04/11 05:43:14;;;;;;;8.10;6.97;;;3.40;99.90;;;;;;5107389;28;20176;-56
2022/04/11 05:45:43;;;;;;;9.20;6.67;;;3.50;99.90;;;;;;5101783;28;20193;-55
2022/04/11 05:48:09;;;;;;;8.70;6.57;;;3.60;99.90;;;;;;5081187;28;20185;-52
2022/04/11 05:50:35;;;;;;;9.70;6.17;;;3.70;99.90;;;;;;5091887;28;20181;-57
2022/04/11 05:53:04;;;;;;;12.17;7.33;;;3.70;99.90;;;;;;5111063;28;20187;-56
2022/04/11 05:55:30;;;;;;;8.73;7.83;;;3.90;99.90;;;;;;5106882;28;20694;-52
2022/04/11 05:57:55;;;;;;;9.90;7.70;;;4.00;99.90;;;;;;5091669;28;20170;-52
2022/04/11 06:00:21;;;;;;;10.63;8.17;;;4.00;99.90;;;;;;5091820;28;20192;-55
2022/04/11 06:02:48;;;;;;;9.13;7.60;;;4.20;99.90;;;;;;5091261;28;20204;-53
2022/04/11 06:05:14;;;;;;;9.60;7.83;;;4.20;99.90;;;;;;5111655;28;20193;-57
2022/04/11 06:07:40;;;;;;;8.27;7.20;;;4.30;99.90;;;;;;5111921;28;20677;-52
2022/04/11 06:10:07;;;;;;;9.50;8.50;;;4.50;99.90;;;;;;5111831;28;20184;-57
2022/04/11 06:12:33;;;;;;;9.33;7.93;;;4.60;99.90;;;;;;5110984;28;20173;-53
2022/04/11 06:14:59;;;;;;;10.70;7.83;;;4.60;99.90;;;;;;5091538;28;20704;-54
2022/04/11 06:17:25;;;;;;;10.70;8.23;;;4.70;99.90;;;;;;5091723;28;20661;-57
2022/04/11 06:19:54;;;;;;;10.63;8.33;;;4.80;99.90;;;;;;5073438;28;20170;-55
2022/04/11 06:22:21;;;;;;;10.60;8.70;;;4.90;99.90;;;;;;5091279;28;20538;-55
2022/04/11 06:24:48;;;;;;;11.53;8.83;;;5.00;99.90;;;;;;5091213;28;20716;-53
2022/04/11 06:27:14;;;;;;;10.40;8.53;;;5.00;99.90;;;;;;5091632;28;20162;-55
2022/04/11 06:29:40;;;;;;;10.03;9.03;;;4.90;99.90;;;;;;5073349;28;20177;-54
2022/04/11 06:32:06;;;;;;;9.77;8.13;;;5.00;99.90;;;;;;5100988;28;20168;-53
2022/04/11 06:34:32;;;;;;;11.17;8.37;;;5.20;99.90;;;;;;5102078;28;20194;-56
2022/04/11 06:36:58;;;;;;;11.60;9.33;;;6.60;99.90;;;;;;5091481;28;20197;-52
2022/04/11 06:39:24;;;;;;;9.23;8.13;;;5.30;99.90;;;;;;5106130;28;20240;-52
2022/04/11 06:41:49;;;;;;;10.47;9.10;;;5.30;99.90;;;;;;5111743;28;20204;-51
2022/04/11 06:44:15;;;;;;;10.57;8.53;;;5.40;99.90;;;;;;5100504;28;20197;-52
2022/04/11 06:46:41;;;;;;;12.53;9.27;;;5.40;99.90;;;;;;5102978;28;20646;-51
2022/04/11 06:49:06;;;;;;;10.00;9.00;;;5.40;99.90;;;;;;5095292;28;20180;-53
2022/04/11 06:51:32;;;;;;;11.53;9.30;;;5.30;99.90;;;;;;5094865;28;20523;-51
2022/04/11 06:53:57;;;;;;;11.60;9.40;;;5.10;99.90;;;;;;5094684;28;20173;-51
2022/04/11 06:56:23;;;;;;;11.30;9.13;;;5.20;99.90;;;;;;5095107;28;20205;-52
2022/04/11 06:58:48;;;;;;;10.87;8.90;;;5.20;99.90;;;;;;5094993;28;20165;-52
2022/04/11 07:01:14;;;;;;;11.57;9.23;;;5.10;99.90;;;;;;5076743;28;20169;-51
2022/04/11 07:03:40;;;;;;;10.60;9.50;;;;;;;;;;5094553;28;20172;-52
2022/04/11 07:06:05;;;;;;;10.80;9.00;;;5.10;99.90;;;;;;5094730;28;20272;-54
2022/04/11 07:08:31;;;;;;;10.47;8.90;;;5.20;99.90;;;;;;5094773;28;20581;-52
2022/04/11 07:11:00;;;;;;;10.27;9.27;;;5.30;99.90;;;;;;5094675;28;20196;-53
2022/04/11 07:13:27;;;;;;;11.10;9.53;;;5.60;99.90;;;;;;5094361;28;20181;-52
2022/04/11 07:15:52;;;;;;;10.40;9.40;;;5.90;99.90;;;;;;5094387;28;20197;-52
2022/04/11 07:18:21;;;;;;;10.77;9.70;;;6.00;99.90;;;;;;5094576;28;20169;-52
2022/04/11 07:20:46;;;;;;;10.27;9.17;;;5.80;99.90;;;;;;5094584;28;20170;-52
2022/04/11 07:23:12;;;;;;;10.57;9.47;;;5.60;99.90;;;;;;5094073;28;20173;-51
2022/04/11 07:25:38;;;;;;;10.57;9.57;;;5.50;99.90;;;;;;5094328;28;20232;-51
2022/04/11 07:28:05;;;;;;;11.50;10.07;;;5.40;99.90;;;;;;5094447;28;20220;-53
2022/04/11 07:30:31;;;;;;;10.70;9.60;;;5.40;99.90;;;;;;5094348;28;20177;-51
2022/04/11 07:32:57;;;;;;;11.60;10.20;;;5.40;99.90;;;;;;5093885;28;20489;-52
2022/04/11 07:35:22;;;;;;;13.23;9.90;;;5.60;99.90;;;;;;5094165;28;20255;-52
2022/04/11 07:37:48;;;;;;;13.00;10.60;;;5.70;99.90;;;;;;5094169;28;20204;-52
2022/04/11 07:40:13;;;;;;;10.77;9.63;;;5.90;99.90;;;;;;5094227;28;20219;-51
2022/04/11 07:42:39;;;;;;;10.17;8.70;;;6.20;99.90;;;;;;5093727;28;20170;-51
2022/04/11 07:45:05;;;;;;;10.13;9.13;;;6.40;99.90;;;;;;5093952;28;20189;-53
2022/04/11 07:47:31;;;;;;;10.60;9.43;;;6.60;99.90;;;;;;5093893;28;20180;-53
2022/04/11 07:49:56;;;;;;;9.80;8.80;;;6.70;99.90;;;;;;5093854;28;20546;-52
2022/04/11 07:52:22;;;;;;;11.50;8.80;;;6.60;99.90;;;;;;5093472;28;20608;-55
2022/04/11 07:54:47;;;;;;;9.63;8.53;;;6.80;99.90;;;;;;5093733;28;20284;-56
2022/04/11 07:57:13;;;;;;;10.40;8.43;;;7.00;99.90;;;;;;5093812;28;20174;-51
2022/04/11 07:59:40;;;;;;;10.07;7.93;;;7.20;99.90;;;;;;5092715;28;20169;-53
2022/04/11 08:02:06;;;;;;;10.07;8.53;;;7.40;99.90;;;;;;5093548;28;20227;-52
2022/04/11 08:04:32;;;;;;;9.00;8.10;;;7.80;99.90;;;;;;5093361;28;20190;-51
2022/04/11 08:06:58;;;;;;;8.70;7.70;;;8.00;99.90;;;;;;5093522;28;20166;-52
2022/04/11 08:09:23;;;;;;;9.43;8.43;;;8.20;99.90;;;;;;5093636;28;20278;-50
2022/04/11 08:11:49;;;;;;;7.87;7.07;;;8.60;99.90;;;;;;5093472;28;20170;-53
2022/04/11 08:14:16;;;;;;;8.47;7.30;;;8.80;99.90;;;;;;5093158;28;20193;-51
2022/04/11 08:16:41;;;;;;;9.83;8.00;;;9.00;99.90;;;;;;5093313;28;20198;-53
2022/04/11 08:19:07;;;;;;;7.90;6.93;;;9.10;99.90;;;;;;5093320;28;20534;-50
2022/04/11 08:21:33;;;;;;;8.60;7.70;;;9.20;99.90;;;;;;5093226;28;20169;-52
2022/04/11 08:23:58;;;;;;;8.83;7.87;;;9.30;99.90;;;;;;5093084;28;20178;-53
2022/04/11 08:26:24;;;;;;;8.50;7.20;;;9.10;99.90;;;;;;5093262;28;20176;-53
2022/04/11 08:28:49;;;;;;;9.10;7.23;;;9.20;99.90;;;;;;5093246;28;20249;-51
2022/04/11 08:31:15;;;;;;;9.77;7.40;;;9.40;99.90;;;;;;5093044;28;20254;-52
2022/04/11 08:33:40;;;;;;;7.77;6.83;;;9.50;99.90;;;;;;5092783;28;20611;-54
2022/04/11 08:36:06;;;;;;;7.70;6.70;;;9.70;99.90;;;;;;5092780;28;20747;-53
2022/04/11 08:38:32;;;;;;;7.47;6.33;;;;;;;;;;5093056;28;20173;-50
2022/04/11 08:41:02;;;;;;;7.33;5.97;;;10.10;99.90;;;;;;5093027;28;20162;-53
2022/04/11 08:43:27;;;;;;;7.97;6.20;;;10.00;99.90;;;;;;5092548;28;20166;-53
2022/04/11 08:45:57;;;;;;;7.83;6.70;;;10.20;99.90;;;;;;5092848;28;20193;-53
2022/04/11 08:48:23;;;;;;;9.03;7.63;;;10.50;99.90;;;;;;5092937;28;20173;-55
2022/04/11 08:50:50;;;;;;;7.63;6.67;;;10.50;99.90;;;;;;5092776;28;20288;-56
2022/04/11 08:53:21;;;;;;;9.97;7.77;;;10.40;99.90;;;;;;5092480;28;20693;-53
2022/04/11 08:55:47;;;;;;;7.70;6.53;;;10.50;99.90;;;;;;5092707;28;20201;-51
2022/04/11 08:58:13;;;;;;;8.47;6.80;;;10.60;99.90;;;;;;5092726;28;20166;-50
2022/04/11 09:00:38;;;;;;;8.53;6.73;;;10.70;99.90;;;;;;5074463;28;20665;-51
2022/04/11 09:03:05;;;;;;;6.93;6.23;;;11.00;99.90;;;;;;5092208;28;20174;-51
2022/04/11 09:05:32;;;;;;;6.83;6.23;;;11.10;99.90;;;;;;5092377;28;20193;-50
2022/04/11 09:07:59;;;;;;;9.13;6.30;;;11.30;99.90;;;;;;5092514;28;20162;-51
2022/04/11 09:10:26;;;;;;;8.17;6.30;;;11.40;99.90;;;;;;5092242;28;20197;-50
2022/04/11 09:12:54;;;;;;;8.50;6.10;;;11.20;99.90;;;;;;5092104;28;20173;-52
2022/04/11 09:15:23;;;;;;;6.77;5.73;;;11.30;99.90;;;;;;5092191;28;20194;-50
2022/04/11 09:17:49;;;;;;;5.17;4.67;;;13.60;99.90;;;;;;5092172;28;20173;-56
2022/04/11 09:20:24;;;;;;;7.43;5.60;;;11.50;99.90;;;;;;5092341;28;20178;-50
2022/04/11 09:22:50;;;;;;;6.37;5.53;;;11.60;99.90;;;;;;5091807;28;20173;-54
2022/04/11 09:25:17;;;;;;;10.87;6.57;;;11.70;99.90;;;;;;5091983;28;20213;-53
2022/04/11 09:27:43;;;;;;;5.40;4.50;;;11.90;99.90;;;;;;5092111;28;20170;-53
2022/04/11 09:30:26;;;;;;;5.03;4.27;;;12.00;99.90;;;;;;5091888;28;20170;-50
2022/04/11 09:32:57;;;;;;;4.83;4.33;;;11.90;99.50;;;;;;5091723;28;20540;-52
2022/04/11 09:35:35;;;;;;;6.10;4.33;;;11.80;99.70;;;;;;5091884;28;20202;-50
2022/04/11 09:38:08;;;;;;;5.67;4.50;;;12.00;99.90;;;;;;5091960;28;20166;-55
2022/04/11 09:40:42;;;;;;;6.87;4.83;;;12.20;99.30;;;;;;5091961;28;20575;-52
2022/04/11 09:43:09;;;;;;;4.67;3.83;;;12.30;99.20;;;;;;5091597;28;20704;-53
2022/04/11 09:45:43;;;;;;;4.40;3.80;;;12.30;97.50;;;;;;5091745;28;20264;-52
2022/04/11 09:48:09;;;;;;;3.83;3.47;;;12.50;99.10;;;;;;5091960;28;20179;-51
2022/04/11 09:50:35;;;;;;;4.10;3.70;;;12.70;96.50;;;;;;5091917;28;20179;-51
2022/04/11 09:53:14;;;;;;;4.93;3.77;;;12.80;99.40;;;;;;5091481;28;20256;-54
2022/04/11 09:55:41;;;;;;;7.80;3.50;;;12.70;97.00;;;;;;5091744;28;20197;-50
2022/04/11 09:58:08;;;;;;;4.70;3.70;;;12.60;96.70;;;;;;5091724;28;20185;-52
2022/04/11 10:00:35;;;;;;;4.80;3.30;;;12.30;97.40;;;;;;5091852;28;20189;-51
2022/04/11 10:03:02;;;;;;;5.27;3.00;;;12.30;95.00;;;;;;5091271;28;20182;-56
2022/04/11 10:05:28;;;;;;;5.13;3.63;;;12.40;94.70;;;;;;5091528;28;20649;-54
2022/04/11 10:07:56;;;;;;;3.43;3.13;;;12.50;95.00;;;;;;5091519;28;20209;-53
2022/04/11 10:10:23;;;;;;;4.97;3.37;;;12.10;95.20;;;;;;5091691;28;20176;-52
2022/04/11 10:12:51;;;;;;;3.83;3.10;;;12.00;96.70;;;;;;5091340;28;20193;-53
2022/04/11 10:15:17;;;;;;;3.43;3.00;;;12.00;95.90;;;;;;5091468;28;20619;-54
2022/04/11 10:17:43;;;;;;;4.97;3.20;;;12.30;97.60;;;;;;5091736;28;20173;-53
2022/04/11 10:20:08;;;;;;;4.07;3.10;;;12.60;95.80;;;;;;5056747;28;20876;-50
2022/04/11 10:22:43;;;;;;;4.60;2.90;;;12.50;94.50;;;;;;5093465;28;20263;-53
2022/04/11 10:25:11;;;;;;;3.30;3.00;;;12.40;94.60;;;;;;5124849;22;20242;-54
2022/04/11 10:27:38;;;;;;;3.47;3.00;;;12.30;94.00;;;;;;5075355;28;20174;-53
2022/04/11 10:30:25;;;;;;;3.37;2.67;;;12.30;94.20;;;;;;5095199;28;20186;-53
2022/04/11 10:32:55;;;;;;;3.27;2.63;;;12.30;93.10;;;;;;5095083;28;20172;-55
2022/04/11 10:35:39;;;;;;;4.23;2.50;;;12.20;94.60;;;;;;5102809;28;20213;-55
2022/04/11 10:38:06;;;;;;;2.50;2.30;;;12.40;93.00;;;;;;5115783;28;20170;-55
2022/04/11 10:40:32;;;;;;;2.50;2.20;;;12.60;92.60;;;;;;5115704;28;20231;-55
2022/04/11 10:43:00;;;;;;;2.53;2.33;;;12.80;92.30;;;;;;5115267;28;20635;-53
2022/04/11 10:45:42;;;;;;;2.20;2.00;;;13.10;91.60;;;;;;5115455;28;20195;-53
2022/04/11 10:48:09;;;;;;;2.57;2.10;;;13.40;93.00;;;;;;5115546;28;20197;-54
2022/04/11 10:50:44;;;;;;;3.03;2.20;;;15.70;92.60;;;;;;5115389;28;20695;-55
2022/04/11 10:53:15;;;;;;;2.60;2.40;;;13.90;91.00;;;;;;5115126;28;20217;-54
2022/04/11 10:55:57;;;;;;;2.83;2.17;;;14.20;90.70;;;;;;5115535;28;20673;-54
2022/04/11 10:58:23;;;;;;;2.57;2.20;;;14.40;90.50;;;;;;5115286;28;20173;-54
2022/04/11 11:00:51;;;;;;;3.20;2.40;;;14.60;91.60;;;;;;5115280;28;20199;-54
2022/04/11 11:03:17;;;;;;;2.73;2.40;;;14.70;91.20;;;;;;5114935;28;20211;-53
2022/04/11 11:05:48;;;;;;;2.60;2.40;;;14.70;89.90;;;;;;5115176;28;20193;-54
2022/04/11 11:08:14;;;;;;;3.07;2.60;;;15.30;88.80;;;;;;5115245;28;20176;-56
2022/04/11 11:10:50;;;;;;;3.20;2.40;;;15.80;89.40;;;;;;5115217;28;20207;-55
2022/04/11 11:13:30;;;;;;;4.03;2.87;;;15.50;88.00;;;;;;5114767;28;20175;-54
2022/04/11 11:16:07;;;;;;;3.60;2.50;;;16.50;89.90;;;;;;5114966;28;20289;-56
2022/04/11 11:18:59;;;;;;;3.20;2.67;;;16.30;89.50;;;;;;5115050;28;20638;-57
2022/04/11 11:21:27;;;;;;;4.60;2.77;;;16.10;84.30;;;;;;5083269;28;20189;-57
2022/04/11 11:24:08;;;;;;;2.50;2.17;;;16.10;87.00;;;;;;5114618;28;20169;-57
2022/04/11 11:26:48;;;;;;;2.57;2.37;;;17.30;84.80;;;;;;5114704;28;20234;-53
2022/04/11 11:29:20;;;;;;;3.87;2.60;;;17.20;84.70;;;;;;5114751;28;20325;-53
2022/04/11 11:31:49;;;;;;;2.93;2.27;;;18.40;79.40;;;;;;5114833;28;20227;-55
2022/04/11 11:34:16;;;;;;;4.77;2.43;;;17.40;75.20;;;;;;5114369;28;20162;-54
2022/04/11 11:36:42;;;;;;;2.43;2.23;;;18.90;74.60;;;;;;5114482;28;20209;-55
2022/04/11 11:39:19;;;;;;;2.63;2.17;;;19.90;73.30;;;;;;5114635;28;20581;-56
2022/04/11 11:41:47;;;;;;;4.20;2.20;;;20.80;67.80;;;;;;5114440;28;20196;-55
2022/04/11 11:44:12;;;;;;;3.72;2.25;;;20.80;69.70;;;;;;5114219;28;20174;-58
2022/04/11 11:46:53;;;;;;;3.35;2.00;;;20.90;65.50;;;;;;5114400;28;20218;-57
2022/04/11 11:49:20;;;;;;;2.47;2.13;;;21.50;63.40;;;;;;5114443;28;20843;-56
2022/04/11 11:51:46;;;;;;;3.40;1.73;;;22.70;58.10;;;;;;5114319;28;20653;-57
2022/04/11 11:54:12;;;;;;;3.47;2.08;;;24.20;55.20;;;;;;5114010;28;20169;-58
2022/04/11 11:56:46;;;;;;;1.50;1.40;;;25.50;51.20;;;;;;5114325;28;20216;-57
2022/04/11 11:59:14;;;;;;;2.15;1.55;;;26.30;48.70;;;;;;5114277;28;20165;-57
2022/04/11 12:01:40;;;;;;;2.72;1.30;;;27.10;46.50;;;;;;5114263;28;20173;-57
2022/04/11 12:04:19;;;;;;;1.67;1.58;;;28.40;46.40;;;;;;5113848;28;20173;-56
2022/04/11 12:06:54;;;;;;;1.60;1.30;;;29.50;43.20;;;;;;5113956;28;20199;-57
2022/04/11 12:09:20;;;;;;;2.25;1.30;;;29.60;41.40;;;;;;5114108;28;20173;-55
2022/04/11 12:11:46;;;;;;;1.60;1.10;;;30.30;38.80;;;;;;5113862;28;20219;-53
2022/04/11 12:14:12;;;;;;;1.65;1.30;;;29.80;37.30;;;;;;5113633;28;20270;-58
2022/04/11 12:16:54;;;;;;;1.85;1.23;;;29.40;35.70;;;;;;5113781;28;20247;-58
2022/04/11 12:19:35;;;;;;;1.33;1.20;;;28.60;35.70;;;;;;5113783;28;20571;-58
2022/04/11 12:22:14;;;;;;;1.88;1.27;;;28.90;36.80;;;;;;5112062;28;20176;-54
2022/04/11 12:24:41;;;;;;;1.48;1.10;;;29.40;33.90;;;;;;5113393;28;20642;-58
2022/04/11 12:27:13;;;;;;;1.17;1.10;;;29.50;34.50;;;;;;5113208;28;20208;-58
2022/04/11 12:29:41;;;;;;;1.75;1.10;;;29.20;34.70;;;;;;5113365;28;20169;-58
2022/04/11 12:32:15;;;;;;;2.03;1.20;;;28.90;33.50;;;;;;5113490;28;20157;-55
2022/04/11 12:34:47;;;;;;;1.23;1.13;;;27.10;33.80;;;;;;5113303;28;20260;-55
2022/04/11 12:37:13;;;;;;;1.20;1.05;;;27.30;34.40;;;;;;5113539;28;20176;-55
2022/04/11 12:40:01;;;;;;;2.78;1.60;;;27.30;34.40;;;;;;5113092;28;20234;-56
2022/04/11 12:42:28;;;;;;;1.98;1.77;;;26.30;36.90;;;;;;5112949;28;20248;-57
2022/04/11 12:45:05;;;;;;;2.78;1.60;;;26.30;35.00;;;;;;5112700;28;20596;-54
2022/04/11 12:47:32;;;;;;;3.10;1.25;;;25.70;37.00;;;;;;5113375;28;20176;-51
2022/04/11 12:49:58;;;;;;;1.60;1.40;;;24.80;39.70;;;;;;5112414;28;20161;-53
2022/04/11 12:52:28;;;;;;;3.67;1.80;;;24.80;40.70;;;;;;5109859;28;20214;-53
2022/04/11 12:55:03;;;;;;;2.25;1.90;;;24.40;37.80;;;;;;5112717;28;20185;-54